Time;durP1;ratioP1;P1;durP2;ratioP2;P2;SDS_P1;SDS_P2;PMS_P1;PMS_P2;Temp;Humidity;BMP_temperature;BMP_pressure;BME280_temperature;BME280_humidity;BME280_pressure;Samples;Min_cycle;Max_cycle;Signal;HPM_P1;HPM_P2
2022/12/26 00:01:11;;;;;;;103.23;41.13;;;;;;;2.52;100.00;101066.28;1779889;81;20971;-72
2022/12/26 00:03:38;;;;;;;73.73;28.80;;;;;;;2.52;100.00;101064.09;1780651;80;21007;-72
2022/12/26 00:06:15;;;;;;;89.17;32.83;;;;;;;2.50;100.00;101070.86;1779654;81;21023;-72
2022/12/26 00:08:43;;;;;;;66.83;25.33;;;;;;;2.49;100.00;101067.80;1779910;80;21066;-71
2022/12/26 00:11:10;;;;;;;57.27;21.97;;;;;;;2.50;100.00;101070.86;1781186;79;21039;-72
2022/12/26 00:13:39;;;;;;;40.33;17.77;;;;;;;2.52;100.00;101072.10;1781923;80;21015;-71
2022/12/26 00:16:13;;;;;;;38.17;15.17;;;;;;;2.58;100.00;101076.56;1780332;79;21489;-72
2022/12/26 00:18:41;;;;;;;44.73;16.20;;;;;;;2.60;100.00;101073.80;1781947;80;21153;-72
2022/12/26 00:21:10;;;;;;;56.70;21.43;;;;;;;2.64;100.00;101083.37;1784216;80;21024;-72
2022/12/26 00:23:37;;;;;;;107.63;33.87;;;;;;;2.69;100.00;101088.41;1782747;80;21030;-71
2022/12/26 00:26:13;;;;;;;135.90;44.87;;;;;;;2.71;100.00;101090.50;1782495;80;21078;-72
2022/12/26 00:28:40;;;;;;;56.83;21.93;;;;;;;2.72;100.00;101084.22;1787843;80;20991;-73
2022/12/26 00:31:14;;;;;;;38.20;16.27;;;;;;;2.73;100.00;101091.30;1784832;80;20999;-72
2022/12/26 00:33:41;;;;;;;33.60;14.03;;;;;;;2.75;100.00;101097.39;1784713;80;21542;-73
2022/12/26 00:36:14;;;;;;;35.83;14.23;;;;;;;2.77;100.00;101102.16;1782548;79;21074;-73
2022/12/26 00:38:44;;;;;;;31.17;13.03;;;;;;;2.78;100.00;101102.06;1786782;80;21074;-72
2022/12/26 00:41:12;;;;;;;34.90;14.47;;;;;;;2.77;100.00;101103.01;1783126;80;21058;-72
2022/12/26 00:43:38;;;;;;;47.43;17.97;;;;;;;2.78;100.00;101102.52;1787853;80;21003;-72
2022/12/26 00:46:06;;;;;;;80.93;30.10;;;;;;;2.78;100.00;101106.53;1787086;80;20995;-72
2022/12/26 00:48:33;;;;;;;157.47;49.30;;;;;;;2.76;100.00;101104.43;1783530;79;20995;-72
2022/12/26 00:51:01;;;;;;;154.00;49.30;;;;;;;2.76;100.00;101109.77;1784629;80;20995;-71
2022/12/26 00:53:28;;;;;;;114.07;40.40;;;;;;;2.75;100.00;101114.27;1786442;79;21023;-72
2022/12/26 00:55:56;;;;;;;59.40;24.83;;;;;;;2.74;100.00;101107.19;1784327;79;21058;-70
2022/12/26 00:58:22;;;;;;;40.50;19.40;;;;;;;2.72;100.00;101107.77;1782432;79;21030;-71
2022/12/26 01:00:49;;;;;;;39.30;15.87;;;;;;;2.74;100.00;101109.02;1783628;80;21027;-71
2022/12/26 01:03:17;;;;;;;34.60;14.70;;;;;;;2.78;100.00;101115.88;1785187;80;20983;-73
2022/12/26 01:05:49;;;;;;;34.30;14.27;;;;;;;2.78;100.00;101119.88;1782188;80;21003;-72
2022/12/26 01:08:17;;;;;;;31.67;12.13;;;;;;;2.79;100.00;101118.45;1782002;80;21023;-71
2022/12/26 01:10:46;;;;;;;28.10;12.53;;;;;;;2.79;100.00;101123.80;1781995;79;21034;-72
2022/12/26 01:13:13;;;;;;;31.30;11.77;;;;;;;2.78;100.00;101132.78;1782316;79;21031;-72
2022/12/26 01:15:51;;;;;;;37.90;15.10;;;;;;;2.79;100.00;101126.95;1781989;80;21019;-72
2022/12/26 01:18:19;;;;;;;43.97;16.67;;;;;;;2.79;100.00;101131.81;1772439;80;21520;-72
2022/12/26 01:20:46;;;;;;;33.73;14.10;;;;;;;2.74;100.00;101115.69;1786888;80;21038;-72
2022/12/26 01:23:13;;;;;;;32.50;13.13;;;;;;;2.70;100.00;101114.17;1787890;80;21007;-72
2022/12/26 01:25:43;;;;;;;37.30;15.27;;;;;;;2.70;100.00;101108.83;1781208;80;20991;-71
2022/12/26 01:28:09;;;;;;;28.37;12.23;;;;;;;2.71;100.00;101111.86;1779966;80;21516;-71
2022/12/26 01:30:36;;;;;;;29.90;12.80;;;;;;;2.69;100.00;101109.77;1780040;80;21023;-71
2022/12/26 01:33:04;;;;;;;32.93;13.60;;;;;;;2.70;100.00;101114.17;1779978;80;21057;-72
2022/12/26 01:35:31;;;;;;;31.43;13.30;;;;;;;2.72;100.00;101114.94;1779891;80;21080;-73
2022/12/26 01:37:59;;;;;;;28.67;12.23;;;;;;;2.72;100.00;101115.78;1779720;80;21046;-72
2022/12/26 01:40:26;;;;;;;32.60;13.30;;;;;;;2.73;100.00;101116.18;1780325;80;20975;-72
2022/12/26 01:42:53;;;;;;;35.27;16.60;;;;;;;2.76;100.00;101119.13;1780055;79;21019;-73
2022/12/26 01:45:29;;;;;;;38.33;15.60;;;;;;;2.76;100.00;101116.45;1779888;80;20999;-69
2022/12/26 01:48:06;;;;;;;29.40;14.13;;;;;;;2.77;100.00;101123.52;1779853;80;21027;-72
2022/12/26 01:50:53;;;;;;;34.37;14.60;;;;;;;2.75;100.00;101119.61;1780174;80;21524;-71
2022/12/26 01:53:31;;;;;;;33.37;13.37;;;;;;;2.75;100.00;101118.76;1779901;79;21058;-72
2022/12/26 01:56:01;;;;;;;38.80;15.87;;;;;;;2.72;100.00;101122.94;1780515;80;20992;-71
2022/12/26 01:58:33;;;;;;;34.33;14.03;;;;;;;2.71;100.00;101130.56;1779638;80;21508;-71
2022/12/26 02:01:01;;;;;;;34.60;14.80;;;;;;;2.71;100.00;101131.90;1779769;79;21011;-72
2022/12/26 02:06:13;;;;;;;37.53;14.73;;;;;;;2.72;100.00;101126.47;1780358;80;20971;-73
2022/12/26 02:08:40;;;;;;;40.70;17.97;;;;;;;2.75;100.00;101124.10;1770904;80;21011;-71
2022/12/26 02:11:15;;;;;;;39.80;15.10;;;;;;;2.73;100.00;101124.67;1780177;79;21031;-72
2022/12/26 02:13:42;;;;;;;38.37;15.50;;;;;;;2.72;100.00;101120.27;1780012;80;20995;-72
2022/12/26 02:16:13;;;;;;;36.87;15.63;;;;;;;2.71;100.00;101118.54;1779914;80;21016;-72
2022/12/26 02:18:40;;;;;;;34.63;14.87;;;;;;;2.71;100.00;101122.09;1779708;80;21005;-72
2022/12/26 02:21:46;;;;;;;38.60;15.53;;;;;;;2.69;100.00;101127.12;1779563;80;21082;-72
2022/12/26 02:24:31;;;;;;;30.77;11.73;;;;;;;2.69;100.00;101121.79;1779386;80;21035;-72
2022/12/26 02:27:25;;;;;;;29.17;12.27;;;;;;;2.67;100.00;101112.53;1780055;80;21011;-72
2022/12/26 02:30:23;;;;;;;35.90;14.47;;;;;;;2.66;100.00;101114.35;1781293;80;21152;-71
2022/12/26 02:33:02;;;;;;;38.60;14.87;;;;;;;2.65;100.00;101110.44;1777196;79;21007;-72
2022/12/26 02:35:43;;;;;;;42.30;16.80;;;;;;;2.64;100.00;101108.25;1779081;79;21039;-72
2022/12/26 02:38:50;;;;;;;42.10;16.23;;;;;;;2.60;100.00;101101.84;1781505;80;21031;-71
2022/12/26 02:41:40;;;;;;;39.33;15.53;;;;;;;2.60;100.00;101119.20;1781109;80;21496;-71
2022/12/26 02:47:33;;;;;;;37.63;15.08;;;;;;;2.55;100.00;101111.94;1780828;79;20992;-71
2022/12/26 03:14:21;;;;;;;33.57;14.03;;;;;;;2.45;100.00;101123.19;1780982;80;21506;-70
2022/12/26 03:19:56;;;;;;;36.70;13.17;;;;;;;2.41;100.00;101125.66;1781347;80;21086;-73
2022/12/26 03:22:29;;;;;;;32.90;12.77;;;;;;;2.41;100.00;101131.48;1778730;80;21031;-72
2022/12/26 03:26:38;;;;;;;30.67;13.13;;;;;;;2.44;100.00;101137.95;1767587;80;21019;-71
2022/12/26 03:27:08;;;;;;;36.73;15.03;;;;;;;2.46;100.00;101142.72;1779012;80;21496;-70
2022/12/26 03:32:20;;;;;;;34.67;14.13;;;;;;;2.48;100.00;101147.52;1780130;80;21047;-70
2022/12/26 03:34:47;;;;;;;30.57;12.13;;;;;;;2.46;100.00;101150.73;1779704;80;21539;-72
2022/12/26 03:37:46;;;;;;;32.27;12.97;;;;;;;2.45;100.00;101150.37;1779957;80;21027;-72
2022/12/26 04:44:33;;;;;;;36.90;12.83;;;;;;;2.58;100.00;101158.49;1780719;79;21031;-71
2022/12/26 04:47:00;;;;;;;32.80;12.17;;;;;;;2.59;100.00;101158.89;1779281;81;21031;-71
2022/12/26 04:52:13;;;;;;;32.33;12.23;;;;;;;2.59;100.00;101161.08;1780656;80;21523;-72
2022/12/26 04:54:41;;;;;;;32.20;12.57;;;;;;;2.60;100.00;101160.59;1781935;80;21499;-72
2022/12/26 04:57:08;;;;;;;31.90;12.30;;;;;;;2.57;100.00;101158.98;1781143;80;21528;-72
2022/12/26 04:59:35;;;;;;;33.57;12.90;;;;;;;2.55;100.00;101159.55;1768508;80;21015;-70
2022/12/26 05:10:26;;;;;;;28.47;11.20;;;;;;;2.56;100.00;101168.41;1780539;80;21007;-72
2022/12/26 05:12:54;;;;;;;35.20;13.60;;;;;;;2.58;100.00;101167.84;1780982;79;21035;-71
2022/12/26 05:15:21;;;;;;;28.73;11.43;;;;;;;2.60;100.00;101173.48;1780266;80;21033;-72
2022/12/26 05:29:02;;;;;;;34.87;14.67;;;;;;;2.58;100.00;101171.84;1780087;80;20975;-71
2022/12/26 05:31:29;;;;;;;31.77;13.47;;;;;;;2.53;100.00;101173.44;1779904;80;21062;-71
2022/12/26 05:34:14;;;;;;;31.43;12.73;;;;;;;2.51;100.00;101179.84;1780478;80;21508;-71
2022/12/26 05:36:46;;;;;;;31.67;13.70;;;;;;;2.52;100.00;101177.08;1778651;80;21075;-71
2022/12/26 05:39:13;;;;;;;33.97;15.40;;;;;;;2.53;100.00;101178.78;1779581;80;21066;-72
2022/12/26 05:41:40;;;;;;;34.10;13.60;;;;;;;2.54;100.00;101179.18;1779583;80;21477;-69
2022/12/26 05:44:07;;;;;;;35.13;14.37;;;;;;;2.57;100.00;101173.66;1779735;80;20979;-72
2022/12/26 05:46:34;;;;;;;39.43;17.03;;;;;;;2.60;100.00;101185.96;1770769;80;21062;-72
2022/12/26 05:49:03;;;;;;;38.20;16.43;;;;;;;2.61;100.00;101187.69;1779593;80;21473;-73
2022/12/26 05:51:30;;;;;;;40.67;16.00;;;;;;;2.64;100.00;101194.19;1779861;80;21497;-71
2022/12/26 05:53:57;;;;;;;35.70;14.00;;;;;;;2.65;100.00;101200.75;1779587;80;21051;-71
2022/12/26 05:56:24;;;;;;;45.17;17.97;;;;;;;2.68;100.00;101203.73;1779748;80;20979;-72
2022/12/26 05:58:59;;;;;;;33.23;15.03;;;;;;;2.70;100.00;101200.97;1779760;80;21533;-72
2022/12/26 06:01:27;;;;;;;38.83;18.80;;;;;;;2.69;100.00;101209.92;1780287;80;21023;-70
2022/12/26 06:03:57;;;;;;;40.97;19.13;;;;;;;2.65;100.00;101210.09;1779596;80;21031;-71
2022/12/26 06:06:24;;;;;;;39.90;17.60;;;;;;;2.65;100.00;101213.25;1779544;80;21002;-72
2022/12/26 06:08:53;;;;;;;37.50;14.87;;;;;;;2.65;100.00;101219.45;1778909;80;21563;-71
2022/12/26 06:11:21;;;;;;;41.87;20.23;;;;;;;2.66;100.00;101218.51;1779550;80;21465;-71
2022/12/26 06:13:48;;;;;;;43.57;18.87;;;;;;;2.68;100.00;101226.91;1779432;79;21027;-73
2022/12/26 06:16:16;;;;;;;35.27;16.30;;;;;;;2.69;100.00;101228.62;1779365;80;21029;-73
2022/12/26 06:18:42;;;;;;;38.20;15.43;;;;;;;2.67;100.00;101234.05;1779393;80;21540;-72
2022/12/26 06:21:12;;;;;;;35.73;14.77;;;;;;;2.66;100.00;101230.52;1772755;79;21070;-72
2022/12/26 06:23:39;;;;;;;48.50;19.83;;;;;;;2.69;100.00;101235.30;1781025;80;20987;-73
2022/12/26 06:26:08;;;;;;;69.37;28.13;;;;;;;2.70;100.00;101235.69;1778592;80;21475;-73
2022/12/26 06:28:36;;;;;;;48.77;23.33;;;;;;;2.71;100.00;101233.39;1779338;80;21508;-72
2022/12/26 06:31:06;;;;;;;44.10;20.60;;;;;;;2.71;100.00;101234.72;1778438;80;21103;-73
2022/12/26 06:33:34;;;;;;;46.27;19.73;;;;;;;2.70;100.00;101231.20;1707881;84;21039;-73
2022/12/26 06:36:09;;;;;;;49.73;23.40;;;;;;;2.72;100.00;101231.97;1727426;83;21003;-72
2022/12/26 06:38:36;;;;;;;100.90;45.73;;;;;;;2.74;100.00;101234.55;1775009;80;21533;-70
2022/12/26 06:41:05;;;;;;;64.53;31.17;;;;;;;2.76;100.00;101236.65;1756754;80;20973;-71
2022/12/26 06:43:32;;;;;;;58.20;25.83;;;;;;;2.78;100.00;101241.42;1778682;81;21024;-70
2022/12/26 06:46:00;;;;;;;50.63;24.77;;;;;;;2.78;100.00;101237.41;1778096;81;21019;-71
2022/12/26 06:48:27;;;;;;;67.20;27.93;;;;;;;2.80;100.00;101239.55;1779885;80;21489;-71
2022/12/26 06:50:54;;;;;;;59.80;28.13;;;;;;;2.83;100.00;101233.99;1780569;80;21009;-71
2022/12/26 06:53:24;;;;;;;42.87;19.17;;;;;;;2.86;100.00;101235.16;1780504;80;21003;-69
2022/12/26 06:55:50;;;;;;;43.03;18.53;;;;;;;2.88;100.00;101235.91;1780536;80;21451;-70
2022/12/26 06:58:18;;;;;;;48.10;19.40;;;;;;;2.91;100.00;101237.56;1780183;80;20952;-68
2022/12/26 07:00:44;;;;;;;44.57;16.50;;;;;;;2.95;100.00;101239.08;1781178;80;20959;-69
2022/12/26 07:03:11;;;;;;;39.73;15.73;;;;;;;2.99;100.00;101244.16;1781111;80;21546;-68
2022/12/26 07:05:38;;;;;;;41.57;16.03;;;;;;;2.99;100.00;101237.48;1776045;80;20955;-70
2022/12/26 07:08:06;;;;;;;39.23;16.63;;;;;;;3.02;100.00;101236.42;1779057;80;21038;-69
2022/12/26 07:10:36;;;;;;;50.53;19.80;;;;;;;3.03;100.00;101242.16;1778342;80;21515;-69
2022/12/26 07:13:03;;;;;;;36.10;16.03;;;;;;;3.04;100.00;101242.05;1778484;80;21047;-69
2022/12/26 07:15:31;;;;;;;32.33;13.93;;;;;;;3.02;100.00;101230.59;1778617;80;21433;-68
2022/12/26 07:17:59;;;;;;;36.93;18.30;;;;;;;3.03;100.00;101235.48;1792001;79;21035;-68
2022/12/26 07:20:26;;;;;;;36.00;16.70;;;;;;;3.09;100.00;101247.13;1807049;79;21561;-68
2022/12/26 07:22:54;;;;;;;33.77;16.40;;;;;;;3.10;100.00;101249.31;1807187;79;21031;-68
2022/12/26 07:25:21;;;;;;;38.83;20.37;;;;;;;3.12;100.00;101249.61;1807898;79;21504;-69
2022/12/26 07:27:53;;;;;;;38.63;16.40;;;;;;;3.13;100.00;101245.97;1805673;79;21499;-69
2022/12/26 07:30:20;;;;;;;51.07;24.13;;;;;;;3.15;100.00;101248.55;1799033;79;20973;-70
2022/12/26 07:32:47;;;;;;;41.70;18.53;;;;;;;3.18;100.00;101252.38;1779931;81;21048;-69
2022/12/26 07:35:14;;;;;;;42.60;19.13;;;;;;;3.19;100.00;101242.94;1780733;80;20955;-67
2022/12/26 07:37:42;;;;;;;53.63;23.77;;;;;;;3.20;100.00;101245.98;1779077;79;20948;-70
2022/12/26 07:40:12;;;;;;;38.27;16.67;;;;;;;3.20;100.00;101243.79;1781072;80;21027;-69
2022/12/26 07:42:39;;;;;;;30.53;14.50;;;;;;;3.21;100.00;101250.38;1780906;80;20963;-72
2022/12/26 07:45:08;;;;;;;42.87;19.57;;;;;;;3.20;100.00;101247.80;1779887;80;21431;-71
2022/12/26 07:47:37;;;;;;;38.40;20.50;;;;;;;3.20;100.00;101254.00;1781126;80;20997;-70
2022/12/26 07:50:04;;;;;;;30.80;15.03;;;;;;;3.20;100.00;101250.47;1777608;80;21004;-70
2022/12/26 07:52:31;;;;;;;34.97;17.10;;;;;;;3.21;100.00;101254.39;1781076;80;21050;-70
2022/12/26 07:55:00;;;;;;;38.00;17.73;;;;;;;3.19;100.00;101248.28;1780695;80;21569;-70
2022/12/26 07:57:27;;;;;;;38.03;18.43;;;;;;;3.21;100.00;101250.38;1779232;80;21518;-71
2022/12/26 07:59:56;;;;;;;28.80;16.73;;;;;;;3.21;100.00;101253.05;1777546;81;20972;-70
2022/12/26 08:02:23;;;;;;;22.93;10.60;;;;;;;3.20;100.00;101254.48;1777584;80;21517;-71
2022/12/26 08:04:53;;;;;;;24.20;13.27;;;;;;;3.13;100.00;101251.80;1778929;79;21007;-71
2022/12/26 08:07:20;;;;;;;18.03;10.37;;;;;;;2.99;100.00;101245.95;1781466;80;20953;-71
2022/12/26 08:09:47;;;;;;;20.97;11.17;;;;;;;2.84;100.00;101237.91;1777380;80;20995;-72
2022/12/26 08:12:14;;;;;;;17.80;9.67;;;;;;;2.71;100.00;101241.41;1776031;79;20997;-72
2022/12/26 08:14:41;;;;;;;19.30;10.03;;;;;;;2.60;100.00;101242.04;1739547;82;20982;-71
2022/12/26 08:17:08;;;;;;;21.77;13.17;;;;;;;2.50;100.00;101232.84;1778259;80;20944;-71
2022/12/26 08:19:34;;;;;;;21.73;11.23;;;;;;;2.42;100.00;101238.16;1779647;79;21001;-72
2022/12/26 08:22:01;;;;;;;25.23;14.23;;;;;;;2.39;100.00;101240.14;1780686;80;21034;-71
2022/12/26 08:24:28;;;;;;;19.77;10.90;;;;;;;2.34;100.00;101232.42;1781584;80;21038;-72
2022/12/26 08:26:56;;;;;;;25.00;13.73;;;;;;;2.31;100.00;101229.07;1781587;80;20984;-70
2022/12/26 08:29:23;;;;;;;18.17;9.10;;;;;;;2.27;100.00;101222.56;1781526;80;21103;-72
2022/12/26 08:31:50;;;;;;;18.67;8.40;;;;;;;2.24;100.00;101221.88;1740787;81;21006;-72
2022/12/26 08:34:16;;;;;;;21.67;11.43;;;;;;;2.21;100.00;101218.05;1740189;82;21034;-71
2022/12/26 08:36:44;;;;;;;31.03;19.93;;;;;;;2.19;100.00;101219.95;1742536;82;21096;-71
2022/12/26 08:39:11;;;;;;;19.57;9.87;;;;;;;2.17;100.00;101210.69;1744007;82;21543;-70
2022/12/26 08:41:39;;;;;;;23.33;11.97;;;;;;;2.17;100.00;101208.02;1741991;81;21062;-71
2022/12/26 08:44:07;;;;;;;20.17;10.77;;;;;;;2.16;100.00;101200.11;1739015;82;21018;-71
2022/12/26 08:46:35;;;;;;;20.03;8.73;;;;;;;2.14;100.00;101203.34;1728049;83;21048;-70
2022/12/26 08:49:02;;;;;;;21.27;10.90;;;;;;;2.12;100.00;101191.42;1730244;83;21034;-74
2022/12/26 08:51:30;;;;;;;35.00;22.97;;;;;;;2.13;100.00;101195.82;1732111;82;21064;-72
2022/12/26 08:53:58;;;;;;;49.73;32.43;;;;;;;2.14;100.00;101196.67;1729317;83;21035;-72
2022/12/26 08:56:25;;;;;;;28.23;16.43;;;;;;;2.15;100.00;101202.41;1731863;82;21042;-74
2022/12/26 08:58:52;;;;;;;34.57;18.97;;;;;;;2.17;100.00;101201.36;1728552;82;21085;-77
2022/12/26 09:01:22;;;;;;;43.60;20.90;;;;;;;2.20;100.00;101205.67;1728968;83;20976;-80
2022/12/26 09:03:56;;;;;;;39.03;19.07;;;;;;;2.24;100.00;101199.20;1735468;82;21010;-76
2022/12/26 09:06:23;;;;;;;36.33;19.47;;;;;;;2.24;100.00;101206.72;1734848;83;21592;-75
2022/12/26 09:08:50;;;;;;;38.87;20.40;;;;;;;2.26;100.00;101214.64;1732056;81;21016;-74
2022/12/26 09:11:21;;;;;;;34.03;18.03;;;;;;;2.26;100.00;101207.97;1731513;83;21004;-77
2022/12/26 09:13:47;;;;;;;39.60;18.00;;;;;;;2.25;100.00;101207.61;1732942;83;21498;-76
2022/12/26 09:16:20;;;;;;;39.40;17.63;;;;;;;2.25;100.00;101204.94;1727985;83;21044;-75
2022/12/26 09:18:47;;;;;;;39.73;18.57;;;;;;;2.22;100.00;101203.28;1727700;83;21082;-72
2022/12/26 09:21:15;;;;;;;39.03;22.27;;;;;;;2.22;100.00;101201.10;1708021;83;21080;-73
2022/12/26 09:23:42;;;;;;;28.67;14.57;;;;;;;2.22;100.00;101199.77;1723253;83;21070;-77
2022/12/26 09:26:17;;;;;;;38.33;20.40;;;;;;;2.21;100.00;101196.25;1781712;79;21016;-77
2022/12/26 09:28:45;;;;;;;35.70;18.07;;;;;;;2.18;100.00;101204.42;1780875;80;21050;-74
2022/12/26 09:31:16;;;;;;;32.77;15.43;;;;;;;2.15;100.00;101199.73;1779375;80;21056;-73
2022/12/26 09:33:43;;;;;;;34.97;16.93;;;;;;;2.12;100.00;101198.09;1780111;80;21072;-72
2022/12/26 09:36:13;;;;;;;34.33;16.77;;;;;;;2.12;100.00;101198.57;1781531;80;21060;-77
2022/12/26 09:38:41;;;;;;;40.33;24.07;;;;;;;2.13;100.00;101200.30;1782307;80;21036;-77
2022/12/26 09:41:46;;;;;;;39.43;21.30;;;;;;;2.12;100.00;101199.42;1781686;80;21020;-74
2022/12/26 09:44:24;;;;;;;29.00;16.93;;;;;;;2.13;100.00;101197.64;1781964;79;21040;-78
2022/12/26 09:47:36;;;;;;;26.70;14.67;;;;;;;2.11;100.00;101199.05;1780006;79;21015;-78
2022/12/26 09:50:13;;;;;;;;;;;;;;;2.09;100.00;101202.30;1782600;80;20997;-78
2022/12/26 09:52:50;;;;;;;19.33;10.73;;;;;;;2.07;100.00;101193.48;1780960;80;20442;-78
2022/12/26 09:55:40;;;;;;;22.10;10.97;;;;;;;2.05;100.00;101192.27;1780095;80;20975;-79
2022/12/26 09:58:27;;;;;;;23.00;12.20;;;;;;;2.05;100.00;101192.72;1781249;80;21036;-76
2022/12/26 10:01:15;;;;;;;25.60;14.77;;;;;;;2.04;100.00;101194.54;1776631;81;20971;-78
2022/12/26 10:03:55;;;;;;;27.60;16.83;;;;;;;2.01;100.00;101192.03;1778936;81;21008;-77
2022/12/26 10:06:36;;;;;;;26.70;14.57;;;;;;;2.00;100.00;101183.66;1776990;80;21016;-79
2022/12/26 10:09:28;;;;;;;28.70;16.07;;;;;;;1.99;100.00;101181.94;1775433;80;20987;-77
2022/12/26 10:12:15;;;;;;;22.33;13.43;;;;;;;2.01;100.00;101188.52;1758914;79;21514;-77
2022/12/26 10:15:03;;;;;;;25.20;15.03;;;;;;;1.99;100.00;101187.27;1776265;80;21015;-79
2022/12/26 10:17:38;;;;;;;17.20;8.70;;;;;;;1.94;100.00;101181.81;1740032;81;21520;-81
2022/12/26 10:20:35;;;;;;;14.83;8.13;;;;;;;1.89;100.00;101188.73;1781144;80;21489;-82
2022/12/26 10:23:22;;;;;;;21.20;10.37;;;;;;;1.85;100.00;101186.72;1734207;82;20971;-81
2022/12/26 10:26:14;;;;;;;20.83;10.83;;;;;;;1.88;100.00;101187.03;1780153;80;20980;-78
2022/12/26 10:29:10;;;;;;;22.03;12.13;;;;;;;1.85;100.00;101193.87;1778990;80;21005;-80
2022/12/26 10:31:53;;;;;;;22.83;12.67;;;;;;;1.84;100.00;101187.68;1777995;80;20977;-79
2022/12/26 10:34:41;;;;;;;26.40;14.07;;;;;;;1.85;100.00;101181.38;1780198;80;21081;-78
2022/12/26 10:37:23;;;;;;;32.17;16.57;;;;;;;1.89;100.00;101190.95;1782330;80;21032;-79
2022/12/26 10:40:26;;;;;;;43.40;21.50;;;;;;;1.87;100.00;101193.30;1782115;80;21012;-79
2022/12/26 10:42:58;;;;;;;28.40;14.57;;;;;;;1.83;100.00;101197.09;1777496;80;20997;-76
2022/12/26 10:45:36;;;;;;;33.97;17.57;;;;;;;1.79;100.00;101191.53;1781533;80;21048;-75
2022/12/26 10:48:04;;;;;;;22.67;13.40;;;;;;;1.75;100.00;101195.32;1780771;80;20985;-78
2022/12/26 10:50:33;;;;;;;17.57;8.80;;;;;;;1.69;100.00;101192.05;1781604;80;21042;-75
2022/12/26 10:53:03;;;;;;;24.30;15.90;;;;;;;1.65;100.00;101191.00;1781105;79;20978;-79
2022/12/26 10:55:33;;;;;;;21.53;12.20;;;;;;;1.62;100.00;101195.16;1780965;79;21026;-80
2022/12/26 10:58:31;;;;;;;16.93;9.07;;;;;;;1.63;100.00;101203.52;1777331;79;21131;-79
2022/12/26 11:01:38;;;;;;;17.17;8.93;;;;;;;1.61;100.00;101202.30;1770908;80;20988;-80
2022/12/26 11:04:19;;;;;;;25.30;13.77;;;;;;;1.60;100.00;101197.91;1736019;82;20998;-76
2022/12/26 11:06:51;;;;;;;18.00;9.80;;;;;;;1.58;100.00;101204.28;1781343;80;20983;-79
2022/12/26 11:09:34;;;;;;;23.37;12.50;;;;;;;1.56;100.00;101200.36;1775610;80;20973;-82
2022/12/26 11:12:06;;;;;;;21.77;12.63;;;;;;;1.55;100.00;101203.11;1782710;79;21017;-78
2022/12/26 11:14:39;;;;;;;22.47;12.30;;;;;;;1.55;100.00;101203.11;1771764;80;20944;-78
2022/12/26 11:17:31;;;;;;;22.17;12.77;;;;;;;1.55;100.00;101205.77;1778700;79;21457;-76
2022/12/26 11:20:24;;;;;;;25.77;14.00;;;;;;;1.52;100.00;101218.78;1782384;79;21011;-78
2022/12/26 11:22:51;;;;;;;;;;;;;;;1.49;100.00;101213.64;1784079;80;21004;-78
2022/12/26 11:25:26;;;;;;;27.70;13.93;;;;;;;1.48;100.00;101215.91;1781681;80;20095;-77
2022/12/26 11:27:56;;;;;;;23.60;11.80;;;;;;;1.50;100.00;101216.67;1780381;80;21026;-78
2022/12/26 11:30:33;;;;;;;21.80;11.20;;;;;;;1.47;100.00;101219.50;1778934;80;21443;-75
2022/12/26 11:33:20;;;;;;;37.70;23.20;;;;;;;1.46;100.00;101215.13;1777499;80;21064;-79
2022/12/26 11:35:55;;;;;;;28.37;16.47;;;;;;;1.47;100.00;101218.17;1778949;80;21016;-78
2022/12/26 11:38:34;;;;;;;24.23;13.53;;;;;;;1.49;100.00;101226.97;1776924;80;21059;-77
2022/12/26 11:41:39;;;;;;;28.47;16.20;;;;;;;1.49;100.00;101217.64;1771427;81;20955;-76
2022/12/26 11:44:35;;;;;;;30.02;16.95;;;;;;;1.49;100.00;101218.48;1773367;80;21047;-76
2022/12/26 11:47:16;;;;;;;20.37;10.83;;;;;;;1.51;100.00;101218.41;1778216;79;20969;-77
2022/12/26 11:49:55;;;;;;;23.93;13.27;;;;;;;1.53;100.00;101227.66;1779193;80;21079;-77
2022/12/26 11:52:50;;;;;;;22.37;11.50;;;;;;;1.55;100.00;101232.43;1781245;80;21529;-77
2022/12/26 11:55:27;;;;;;;21.87;11.30;;;;;;;1.54;100.00;101238.25;1780030;80;21024;-77
2022/12/26 11:58:07;;;;;;;25.07;14.67;;;;;;;1.54;100.00;101243.58;1780931;80;21013;-79
2022/12/26 12:00:39;;;;;;;24.00;11.87;;;;;;;1.55;100.00;101233.28;1781220;80;21068;-79
2022/12/26 12:03:14;;;;;;;20.02;10.15;;;;;;;1.55;100.00;101240.43;1779972;80;21172;-77
2022/12/26 12:05:55;;;;;;;23.97;11.80;;;;;;;1.55;100.00;101237.28;1779545;79;21577;-78
2022/12/26 12:08:36;;;;;;;20.27;10.07;;;;;;;1.58;100.00;101242.94;1780103;80;21016;-78
2022/12/26 12:11:15;;;;;;;19.20;9.40;;;;;;;1.63;100.00;101243.52;1779801;80;21012;-77
2022/12/26 12:14:22;;;;;;;23.40;11.03;;;;;;;1.71;100.00;101246.63;1730625;79;20944;-76
2022/12/26 12:17:22;;;;;;;27.23;13.13;;;;;;;1.79;100.00;101244.86;1769987;80;21013;-75
2022/12/26 12:20:18;;;;;;;27.47;14.97;;;;;;;1.83;100.00;101243.29;1773388;80;21044;-77
2022/12/26 12:22:53;;;;;;;23.23;11.33;;;;;;;1.85;100.00;101242.72;1767903;80;20994;-78
2022/12/26 12:26:02;;;;;;;26.80;14.80;;;;;;;1.84;100.00;101249.47;1763147;80;20965;-77
2022/12/26 12:28:56;;;;;;;31.37;18.57;;;;;;;1.83;100.00;101245.95;1767741;79;21028;-80
2022/12/26 12:32:02;;;;;;;24.43;14.00;;;;;;;1.80;100.00;101246.12;1766898;80;21063;-77
2022/12/26 12:34:37;;;;;;;27.30;15.70;;;;;;;1.77;100.00;101247.64;1774228;81;21040;-77
2022/12/26 12:37:27;;;;;;;36.43;24.30;;;;;;;1.76;100.00;101244.58;1778860;80;21001;-77
2022/12/26 12:40:34;;;;;;;71.33;49.30;;;;;;;1.77;100.00;101248.09;1773445;81;20989;-77
2022/12/26 12:43:34;;;;;;;31.33;19.40;;;;;;;1.75;100.00;101239.33;1766955;80;21446;-78
2022/12/26 12:46:53;;;;;;;33.43;18.77;;;;;;;1.71;100.00;101238.16;1763686;80;21048;-79
2022/12/26 12:49:47;;;;;;;32.23;15.23;;;;;;;1.70;100.00;101243.59;1759799;80;20974;-78
2022/12/26 12:52:54;;;;;;;31.73;16.10;;;;;;;1.65;100.00;101245.17;1768329;79;21008;-79
2022/12/26 12:55:52;;;;;;;27.80;13.30;;;;;;;1.63;100.00;101247.52;1760552;80;20941;-77
2022/12/26 12:59:12;;;;;;;22.97;10.80;;;;;;;1.62;100.00;101249.33;1779896;80;21529;-78
2022/12/26 13:01:46;;;;;;;39.70;20.43;;;;;;;1.64;100.00;101255.91;1780082;80;20993;-76
2022/12/26 13:04:35;;;;;;;30.33;15.40;;;;;;;1.62;100.00;101255.14;1780318;79;21052;-79
2022/12/26 13:07:16;;;;;;;31.33;14.60;;;;;;;1.63;100.00;101254.18;1779032;80;21043;-75
2022/12/26 13:09:56;;;;;;;36.93;16.50;;;;;;;1.64;100.00;101252.77;1779809;80;21037;-78
2022/12/26 13:12:34;;;;;;;43.23;18.10;;;;;;;1.65;100.00;101253.66;1767536;80;21058;-76
2022/12/26 13:15:18;;;;;;;49.80;22.70;;;;;;;1.68;100.00;101257.45;1766931;79;21021;-75
2022/12/26 13:17:53;;;;;;;36.87;20.13;;;;;;;1.66;100.00;101252.20;1748076;81;21574;-76
2022/12/26 13:20:40;;;;;;;37.43;20.87;;;;;;;1.67;100.00;101246.42;1748431;81;21076;-76
2022/12/26 13:26:29;;;;;;;29.80;16.13;;;;;;;1.66;100.00;101254.02;1743313;82;21006;-75
2022/12/26 13:29:14;;;;;;;51.53;25.02;;;;;;;1.65;100.00;101252.31;1744365;82;21018;-79
2022/12/26 13:31:41;;;;;;;112.63;55.90;;;;;;;1.64;100.00;101246.59;1742645;82;21125;-78
2022/12/26 13:34:19;;;;;;;77.33;41.20;;;;;;;1.65;100.00;101247.84;1742834;82;21122;-77
2022/12/26 13:36:48;;;;;;;60.03;34.17;;;;;;;1.66;100.00;101251.36;1720690;82;21073;-77
2022/12/26 13:39:35;;;;;;;58.00;30.93;;;;;;;1.69;100.00;101260.05;1742438;82;21535;-77
2022/12/26 13:45:38;;;;;;;52.53;27.17;;;;;;;1.73;100.00;101261.22;1774934;80;21016;-77
2022/12/26 13:48:22;;;;;;;57.93;29.97;;;;;;;1.73;100.00;101254.07;1793447;80;21017;-77
2022/12/26 13:50:55;;;;;;;52.63;27.07;;;;;;;1.69;100.00;101264.05;1786428;79;21042;-79
2022/12/26 13:53:31;;;;;;;57.08;27.65;;;;;;;1.68;100.00;101258.80;1781025;80;21012;-79